createdAt,value
2023-02-02T00:01:52.386Z,73.57
2023-02-02T00:04:42.049Z,75.72
2023-02-02T00:07:09.888Z,62.35
2023-02-02T00:09:37.866Z,44.58
2023-02-02T00:12:05.857Z,60.03
2023-02-02T00:14:33.603Z,52.30
2023-02-02T00:17:01.374Z,36.13
2023-02-02T00:19:33.964Z,44.03
2023-02-02T00:22:01.839Z,27.30
2023-02-02T00:24:29.557Z,48.15
2023-02-02T00:26:58.568Z,42.10
2023-02-02T00:29:28.709Z,72.03
2023-02-02T00:31:56.467Z,40.22
2023-02-02T00:34:24.413Z,64.80
2023-02-02T00:36:52.444Z,65.45
2023-02-02T00:39:22.601Z,53.78
2023-02-02T00:41:50.562Z,76.15
2023-02-02T00:44:38.236Z,72.10
2023-02-02T00:47:06.157Z,68.97
2023-02-02T00:49:34.008Z,39.15
2023-02-02T00:52:01.927Z,20.92
2023-02-02T00:54:29.618Z,53.97
2023-02-02T00:56:57.633Z,69.40
2023-02-02T00:59:25.440Z,37.33
2023-02-02T01:01:53.282Z,50.40
2023-02-02T01:04:21.029Z,57.78
2023-02-02T01:06:48.743Z,59.20
2023-02-02T01:09:16.484Z,50.08
2023-02-02T01:11:44.348Z,50.85
2023-02-02T01:14:12.113Z,44.17
2023-02-02T01:16:40.134Z,58.20
2023-02-02T01:19:07.991Z,59.92
2023-02-02T01:21:35.888Z,70.70
2023-02-02T01:24:03.767Z,50.38
2023-02-02T01:26:31.640Z,65.95
2023-02-02T01:28:59.475Z,51.78
2023-02-02T01:31:27.414Z,84.05
2023-02-02T01:33:56.126Z,62.33
2023-02-02T01:36:24.390Z,49.25
2023-02-02T01:38:52.365Z,67.10
2023-02-02T01:41:22.332Z,72.78
2023-02-02T01:43:55.418Z,76.80
2023-02-02T01:46:34.153Z,63.05
2023-02-02T01:49:15.298Z,47.25
2023-02-02T01:52:10.486Z,60.55
2023-02-02T01:54:47.447Z,52.17
2023-02-02T01:57:17.960Z,54.22
2023-02-02T01:59:45.858Z,32.67
2023-02-02T02:02:13.717Z,63.08
2023-02-02T02:04:42.767Z,68.38
2023-02-02T02:07:10.612Z,60.80
2023-02-02T02:09:38.619Z,68.70
2023-02-02T02:12:15.796Z,69.82
2023-02-02T02:15:04.437Z,52.40
2023-02-02T02:17:41.941Z,54.90
2023-02-02T02:20:56.789Z,61.17
2023-02-02T02:23:52.537Z,53.95
2023-02-02T02:26:34.925Z,34.92
2023-02-02T02:29:43.297Z,40.97
2023-02-02T02:32:36.907Z,42.65
2023-02-02T02:35:26.687Z,31.08
2023-02-02T02:38:18.453Z,34.63
2023-02-02T02:40:54.457Z,44.92
2023-02-02T02:43:27.903Z,51.72
2023-02-02T02:45:56.519Z,47.63
2023-02-02T02:48:25.293Z,34.70
2023-02-02T02:50:53.167Z,67.88
2023-02-02T02:53:23.903Z,7.40
2023-02-02T02:55:55.405Z,68.35
2023-02-02T02:58:36.311Z,54.73
2023-02-02T03:01:15.004Z,48.90
2023-02-02T03:04:03.983Z,49.30
2023-02-02T03:06:53.145Z,52.13
2023-02-02T03:09:23.584Z,68.85
2023-02-02T03:11:51.362Z,57.47
2023-02-02T03:14:19.179Z,72.85
2023-02-02T03:16:47.012Z,88.80
2023-02-02T03:19:14.694Z,67.07
2023-02-02T03:21:42.515Z,84.25
2023-02-02T03:24:10.348Z,83.97
2023-02-02T03:26:38.250Z,77.95
2023-02-02T03:29:06.036Z,33.15
2023-02-02T03:31:33.903Z,99.53
2023-02-02T03:34:01.813Z,60.13
2023-02-02T03:36:29.580Z,102.13
2023-02-02T03:38:57.375Z,101.97
2023-02-02T03:41:25.418Z,97.28
2023-02-02T03:43:53.291Z,76.40
2023-02-02T03:46:21.156Z,108.90
2023-02-02T03:48:48.897Z,107.55
2023-02-02T03:51:16.697Z,102.07
2023-02-02T03:53:49.904Z,107.45
2023-02-02T03:56:19.485Z,104.70
2023-02-02T03:58:47.813Z,57.35
2023-02-02T04:01:17.021Z,122.60
2023-02-02T04:03:46.639Z,105.53
2023-02-02T04:06:14.397Z,140.30
2023-02-02T04:08:42.147Z,106.43
2023-02-02T04:11:13.051Z,104.35
2023-02-02T04:13:41.154Z,86.93
2023-02-02T04:16:09.055Z,101.72
2023-02-02T04:18:39.921Z,125.50
2023-02-02T04:21:07.917Z,109.93
2023-02-02T04:23:35.968Z,111.47
2023-02-02T04:26:03.975Z,140.02
2023-02-02T04:28:31.846Z,118.70
2023-02-02T04:30:59.761Z,89.75
2023-02-02T04:33:28.175Z,104.07
2023-02-02T04:35:55.849Z,81.13
2023-02-02T04:38:23.774Z,114.32
2023-02-02T04:40:51.604Z,81.43
2023-02-02T04:43:19.386Z,103.72
2023-02-02T04:45:47.332Z,85.03
2023-02-02T04:48:15.080Z,97.18
2023-02-02T04:50:42.868Z,98.22
2023-02-02T04:53:10.558Z,96.68
2023-02-02T04:55:39.240Z,87.55
2023-02-02T04:58:07.185Z,88.28
2023-02-02T05:00:35.146Z,104.10
2023-02-02T05:03:03.069Z,108.05
2023-02-02T05:05:31.150Z,94.35
2023-02-02T05:08:00.230Z,94.40
2023-02-02T05:10:28.187Z,67.30
2023-02-02T05:12:56.243Z,85.68
2023-02-02T05:15:24.500Z,93.70
2023-02-02T05:17:52.425Z,65.88
2023-02-02T05:20:20.147Z,75.03
2023-02-02T05:22:50.325Z,69.50
2023-02-02T05:25:18.328Z,63.88
2023-02-02T05:27:46.936Z,72.72
2023-02-02T05:30:15.303Z,81.22
2023-02-02T05:32:43.128Z,85.85
2023-02-02T05:35:11.119Z,87.15
2023-02-02T05:37:41.525Z,110.63
2023-02-02T05:40:10.268Z,106.80
2023-02-02T05:42:38.109Z,101.68
2023-02-02T05:45:06.411Z,93.35
2023-02-02T05:47:36.095Z,115.68
2023-02-02T05:50:04.126Z,93.10
2023-02-02T05:52:31.946Z,122.18
2023-02-02T05:54:59.725Z,98.70
2023-02-02T05:57:28.422Z,89.32
2023-02-02T05:59:56.381Z,66.78
2023-02-02T06:02:24.261Z,80.03
2023-02-02T06:04:51.923Z,103.25
2023-02-02T06:07:19.769Z,98.38
2023-02-02T06:09:47.669Z,76.95
2023-02-02T06:12:15.335Z,72.55
2023-02-02T06:14:43.080Z,115.60
2023-02-02T06:17:11.035Z,128.45
2023-02-02T06:19:38.916Z,103.70
2023-02-02T06:22:07.463Z,81.43
2023-02-02T06:24:35.191Z,89.07
2023-02-02T06:27:03.033Z,111.88
2023-02-02T06:29:30.815Z,99.25
2023-02-02T06:31:58.818Z,108.53
2023-02-02T06:34:26.765Z,112.97
2023-02-02T06:36:54.561Z,100.93
2023-02-02T06:39:22.373Z,108.75
2023-02-02T06:41:52.411Z,100.30
2023-02-02T06:44:21.476Z,118.25
2023-02-02T06:46:49.258Z,86.95
2023-02-02T06:49:16.986Z,128.95
2023-02-02T06:51:44.952Z,115.40
2023-02-02T06:54:12.740Z,128.77
2023-02-02T06:56:40.827Z,138.57
2023-02-02T06:59:08.686Z,102.90
2023-02-02T07:01:36.526Z,125.13
2023-02-02T07:04:04.387Z,127.57
2023-02-02T07:06:32.273Z,124.43
2023-02-02T07:09:02.807Z,137.73
2023-02-02T07:11:40.326Z,103.72
2023-02-02T07:14:11.585Z,103.82
2023-02-02T07:16:39.444Z,110.22
2023-02-02T07:19:07.396Z,106.70
2023-02-02T07:21:37.770Z,119.25
2023-02-02T07:24:06.120Z,100.78
2023-02-02T07:26:35.016Z,112.00
2023-02-02T07:29:04.885Z,136.10
2023-02-02T07:31:35.854Z,114.82
2023-02-02T07:34:04.497Z,75.55
2023-02-02T07:36:32.087Z,142.95
2023-02-02T07:39:00.212Z,114.00
2023-02-02T07:41:28.365Z,118.60
2023-02-02T07:43:56.106Z,126.70
2023-02-02T07:46:23.882Z,127.63
2023-02-02T07:48:55.193Z,94.30
2023-02-02T07:51:23.104Z,85.03
2023-02-02T07:53:54.991Z,80.78
2023-02-02T07:56:25.165Z,103.35
2023-02-02T07:58:53.891Z,107.53
2023-02-02T08:01:23.332Z,89.70
2023-02-02T08:03:51.360Z,88.28
2023-02-02T08:06:21.607Z,104.20
2023-02-02T08:08:49.563Z,85.85
2023-02-02T08:11:18.804Z,66.63
2023-02-02T08:13:52.652Z,92.25
2023-02-02T08:16:20.671Z,80.22
2023-02-02T08:18:48.564Z,118.82
2023-02-02T08:21:16.475Z,115.03
2023-02-02T08:23:44.510Z,95.10
2023-02-02T08:26:19.166Z,104.93
2023-02-02T08:28:49.104Z,98.65
2023-02-02T08:31:22.074Z,104.38
2023-02-02T08:33:50.131Z,92.80
2023-02-02T08:36:19.428Z,114.43
2023-02-02T08:38:47.350Z,105.68
2023-02-02T08:41:17.066Z,59.10
2023-02-02T08:43:45.052Z,106.22
2023-02-02T08:46:14.611Z,100.82
2023-02-02T08:48:42.594Z,98.68
2023-02-02T08:51:15.546Z,99.82
2023-02-02T08:53:43.677Z,114.35
2023-02-02T08:56:13.142Z,69.45
2023-02-02T08:58:41.128Z,72.45
2023-02-02T09:01:12.128Z,71.55
2023-02-02T09:03:40.801Z,100.35
2023-02-02T09:06:15.762Z,68.30
2023-02-02T09:08:43.708Z,79.18
2023-02-02T09:11:18.741Z,88.28
2023-02-02T09:13:47.690Z,58.58
2023-02-02T09:16:17.419Z,54.85
2023-02-02T09:18:45.320Z,71.03
2023-02-02T09:21:15.025Z,58.55
2023-02-02T09:23:43.362Z,59.55
2023-02-02T09:26:21.692Z,56.83
2023-02-02T09:28:54.056Z,72.70
2023-02-02T09:33:49.791Z,49.65
2023-02-02T09:36:22.292Z,43.22
2023-02-02T09:38:50.937Z,59.78
2023-02-02T09:41:39.400Z,74.07
2023-02-02T09:44:29.027Z,65.28
2023-02-02T09:47:21.431Z,54.33
2023-02-02T09:50:26.035Z,57.08
2023-02-02T09:53:03.124Z,67.68
2023-02-02T09:55:43.768Z,60.28
2023-02-02T09:58:16.187Z,41.47
2023-02-02T10:01:02.137Z,54.10
2023-02-02T10:03:40.472Z,56.90
2023-02-02T10:06:25.231Z,45.63
2023-02-02T10:09:09.657Z,72.60
2023-02-02T10:11:49.619Z,37.83
2023-02-02T10:14:26.702Z,33.65
2023-02-02T10:16:55.656Z,45.50
2023-02-02T10:19:29.344Z,33.30
2023-02-02T10:22:07.799Z,36.55
2023-02-02T10:24:38.219Z,36.28
2023-02-02T10:27:09.447Z,34.83
2023-02-02T10:29:54.031Z,4.57
2023-02-02T10:32:32.300Z,12.00
2023-02-02T10:35:13.107Z,5.47
2023-02-02T10:38:06.557Z,19.57
2023-02-02T10:40:57.152Z,37.03
2023-02-02T10:43:50.072Z,31.00
2023-02-02T10:46:34.180Z,24.45
2023-02-02T10:49:14.008Z,30.60
2023-02-02T10:51:42.036Z,19.60
2023-02-02T10:54:25.269Z,25.50
2023-02-02T10:56:54.358Z,27.17
2023-02-02T10:59:25.427Z,37.42
2023-02-02T11:01:53.232Z,31.98
2023-02-02T11:04:39.319Z,24.23
2023-02-02T11:07:07.117Z,30.02
2023-02-02T11:09:40.550Z,25.60
2023-02-02T11:12:19.671Z,31.90
2023-02-02T11:14:55.340Z,21.60
2023-02-02T11:17:26.607Z,28.92
2023-02-02T11:19:56.358Z,30.50
2023-02-02T11:22:37.232Z,17.48
2023-02-02T11:25:07.407Z,21.60
2023-02-02T11:27:41.977Z,25.02
2023-02-02T11:30:18.987Z,28.35
2023-02-02T11:32:49.936Z,24.35
2023-02-02T11:35:23.590Z,30.92
2023-02-02T11:38:21.918Z,34.28
2023-02-02T11:41:04.675Z,33.28
2023-02-02T11:43:41.883Z,39.03
2023-02-02T11:46:23.901Z,45.42
2023-02-02T11:49:10.757Z,45.47
2023-02-02T11:51:38.626Z,56.40
2023-02-02T11:54:22.506Z,66.43
2023-02-02T11:56:51.173Z,57.75
2023-02-02T11:59:32.555Z,71.18
2023-02-02T12:02:23.492Z,54.70
2023-02-02T12:04:56.802Z,41.05
2023-02-02T12:07:28.551Z,58.45
2023-02-02T12:10:27.773Z,43.70
2023-02-02T12:13:01.719Z,47.17
2023-02-02T12:15:52.929Z,35.15
2023-02-02T12:18:35.726Z,33.08
2023-02-02T12:21:13.327Z,26.10
2023-02-02T12:23:47.211Z,36.22
2023-02-02T12:26:33.536Z,32.10
2023-02-02T12:29:11.838Z,41.50
2023-02-02T12:31:46.351Z,31.05
2023-02-02T12:34:44.573Z,35.38
2023-02-02T12:37:32.116Z,33.72
2023-02-02T12:40:24.635Z,35.13
2023-02-02T12:43:11.894Z,39.70
2023-02-02T12:46:10.798Z,31.75
2023-02-02T12:48:51.822Z,27.77
2023-02-02T12:51:32.053Z,37.70
2023-02-02T12:54:34.761Z,14.65
2023-02-02T12:57:23.638Z,32.53
2023-02-02T13:00:35.664Z,32.88
2023-02-02T13:03:16.605Z,32.47
2023-02-02T13:05:56.342Z,23.10
2023-02-02T13:08:42.566Z,35.50
2023-02-02T13:11:30.393Z,23.25
2023-02-02T13:14:06.484Z,20.60
2023-02-02T13:16:34.342Z,22.73
2023-02-02T13:19:10.519Z,27.17
2023-02-02T13:21:38.389Z,22.88
2023-02-02T13:24:06.534Z,31.92
2023-02-02T13:26:39.267Z,31.95
2023-02-02T13:29:25.651Z,17.10
2023-02-02T13:32:35.508Z,21.63
2023-02-02T13:35:17.795Z,27.02
2023-02-02T13:40:34.803Z,17.77
2023-02-02T13:43:40.764Z,11.85
2023-02-02T13:46:27.335Z,15.98
2023-02-02T13:49:06.788Z,24.50
2023-02-02T13:51:40.520Z,40.65
2023-02-02T13:54:45.951Z,17.20
2023-02-02T13:57:32.289Z,26.02
2023-02-02T14:00:15.208Z,30.73
2023-02-02T14:02:47.435Z,34.35
2023-02-02T14:05:39.079Z,47.95
2023-02-02T14:08:08.737Z,56.23
2023-02-02T14:11:00.394Z,47.35
2023-02-02T14:14:10.821Z,62.83
2023-02-02T14:16:38.694Z,57.70
2023-02-02T14:19:09.645Z,53.03
2023-02-02T14:21:37.500Z,62.00
2023-02-02T14:24:24.348Z,89.80
2023-02-02T14:26:57.805Z,64.40
2023-02-02T14:29:40.140Z,54.72
2023-02-02T14:32:07.886Z,56.63
2023-02-02T14:34:42.966Z,43.28
2023-02-02T14:37:28.566Z,52.85
2023-02-02T14:39:59.548Z,59.80
2023-02-02T14:43:15.427Z,61.28
2023-02-02T14:45:44.346Z,69.15
2023-02-02T14:48:27.567Z,91.07
2023-02-02T14:50:59.734Z,129.65
2023-02-02T14:53:38.535Z,116.53
2023-02-02T14:56:11.364Z,84.00
2023-02-02T14:58:52.798Z,127.22
2023-02-02T15:01:24.069Z,122.10
2023-02-02T15:03:58.440Z,110.63
2023-02-02T15:06:33.595Z,155.38
2023-02-02T15:09:33.933Z,153.63
2023-02-02T15:12:04.899Z,149.07
2023-02-02T15:14:55.981Z,156.80
2023-02-02T15:17:42.154Z,180.98
2023-02-02T15:20:45.255Z,163.90
2023-02-02T15:23:27.258Z,137.30
2023-02-02T15:26:04.724Z,159.38
2023-02-02T15:28:43.764Z,152.20
2023-02-02T15:31:28.646Z,110.70
2023-02-02T15:33:59.300Z,108.32
2023-02-02T15:36:35.943Z,99.55
2023-02-02T15:39:18.575Z,62.30
2023-02-02T15:41:46.378Z,100.45
2023-02-02T15:44:28.258Z,72.78
2023-02-02T15:46:57.141Z,38.53
2023-02-02T15:49:33.848Z,50.63
2023-02-02T15:52:11.191Z,28.63
2023-02-02T15:54:39.142Z,29.33
2023-02-02T15:57:37.653Z,19.52
2023-02-02T16:00:44.240Z,27.10
2023-02-02T16:03:20.061Z,19.55
2023-02-02T16:05:52.567Z,20.13
2023-02-02T16:08:35.857Z,30.92
2023-02-02T16:11:06.041Z,31.85
2023-02-02T16:13:34.688Z,24.02
2023-02-02T16:16:23.789Z,29.85
2023-02-02T16:19:17.237Z,30.30
2023-02-02T16:21:59.334Z,24.40
2023-02-02T16:27:03.353Z,24.17
2023-02-02T16:29:31.260Z,26.27
2023-02-02T16:31:59.139Z,21.35
2023-02-02T16:34:42.114Z,22.08
2023-02-02T16:37:27.832Z,19.63
2023-02-02T16:39:56.848Z,16.65
2023-02-02T16:42:29.776Z,22.63
2023-02-02T16:44:58.494Z,27.58
2023-02-02T16:47:26.305Z,21.48
2023-02-02T16:50:09.432Z,25.00
2023-02-02T16:53:03.998Z,20.73
2023-02-02T16:55:47.819Z,16.75
2023-02-02T16:58:20.094Z,20.98
2023-02-02T17:01:13.562Z,34.92
2023-02-02T17:03:47.959Z,17.15
2023-02-02T17:06:16.403Z,14.52
2023-02-02T17:08:44.286Z,33.65
2023-02-02T17:11:25.248Z,24.85
2023-02-02T17:13:53.868Z,30.25
2023-02-02T17:16:23.184Z,33.47
2023-02-02T17:18:51.618Z,31.67
2023-02-02T17:21:23.733Z,23.40
2023-02-02T17:23:52.121Z,33.20
2023-02-02T17:26:20.142Z,27.27
2023-02-02T17:28:47.985Z,23.73
2023-02-02T17:31:16.454Z,36.95
2023-02-02T17:33:44.488Z,29.58
2023-02-02T17:36:13.627Z,39.08
2023-02-02T17:38:41.488Z,74.10
2023-02-02T17:41:10.653Z,98.88
2023-02-02T17:43:38.464Z,109.20
2023-02-02T17:46:06.532Z,162.52
2023-02-02T17:48:34.785Z,126.95
2023-02-02T17:51:06.847Z,153.38
2023-02-02T17:53:34.948Z,92.07
2023-02-02T17:56:02.806Z,289.17
2023-02-02T17:58:30.797Z,245.10
2023-02-02T18:00:59.719Z,200.70
2023-02-02T18:03:29.016Z,167.75
2023-02-02T18:05:58.237Z,212.13
2023-02-02T18:08:26.056Z,187.40
2023-02-02T18:10:53.765Z,107.30
2023-02-02T18:13:22.458Z,207.70
2023-02-02T18:15:50.766Z,144.98
2023-02-02T18:18:18.589Z,202.82
2023-02-02T18:20:47.671Z,179.98
2023-02-02T18:23:15.688Z,173.77
2023-02-02T18:25:43.637Z,159.18
2023-02-02T18:28:11.684Z,173.68
2023-02-02T18:30:40.329Z,140.40
2023-02-02T18:33:09.992Z,76.47
2023-02-02T18:35:42.027Z,152.18
2023-02-02T18:40:38.412Z,117.43
2023-02-02T18:43:06.194Z,175.07
2023-02-02T18:45:34.212Z,213.23
2023-02-02T18:48:02.138Z,228.48
2023-02-02T18:50:29.969Z,203.27
2023-02-02T18:52:57.772Z,210.07
2023-02-02T18:55:25.891Z,131.65
2023-02-02T18:57:53.897Z,122.28
2023-02-02T19:00:22.552Z,157.35
2023-02-02T19:02:50.411Z,79.47
2023-02-02T19:05:36.409Z,96.45
2023-02-02T19:08:06.239Z,51.90
2023-02-02T19:10:34.012Z,158.45
2023-02-02T19:13:18.700Z,101.03
2023-02-02T19:15:50.011Z,135.32
2023-02-02T19:18:20.206Z,125.07
2023-02-02T19:20:49.381Z,135.18
2023-02-02T19:23:21.276Z,138.60
2023-02-02T19:28:29.648Z,108.70
2023-02-02T19:30:59.245Z,132.13
2023-02-02T19:33:35.489Z,114.82
2023-02-02T19:36:03.305Z,114.72
2023-02-02T19:38:31.145Z,113.57
2023-02-02T19:40:58.987Z,96.32
2023-02-02T19:43:30.139Z,133.55
2023-02-02T19:45:59.190Z,100.78
2023-02-02T19:48:31.766Z,104.75
2023-02-02T19:51:00.872Z,111.95
2023-02-02T19:53:36.368Z,126.35
2023-02-02T19:56:21.256Z,113.78
2023-02-02T19:58:49.105Z,129.32
2023-02-02T20:01:20.404Z,124.28
2023-02-02T20:03:48.265Z,117.95
2023-02-02T20:06:26.719Z,147.77
2023-02-02T20:08:54.481Z,140.15
2023-02-02T20:11:45.104Z,147.40
2023-02-02T20:14:18.941Z,147.07
2023-02-02T20:17:14.595Z,151.35
2023-02-02T20:19:42.749Z,77.00
2023-02-02T20:22:24.449Z,99.85
2023-02-02T20:24:52.345Z,123.85
2023-02-02T20:27:21.975Z,152.05
2023-02-02T20:29:50.855Z,143.25
2023-02-02T20:32:22.148Z,121.28
2023-02-02T20:34:50.556Z,55.25
2023-02-02T20:37:24.131Z,122.47
2023-02-02T20:39:59.104Z,83.80
2023-02-02T20:42:26.857Z,93.55
2023-02-02T20:44:54.846Z,105.28
2023-02-02T20:47:22.900Z,73.18
2023-02-02T20:49:50.825Z,62.97
2023-02-02T20:52:23.886Z,93.07
2023-02-02T20:54:52.214Z,66.25
2023-02-02T20:57:20.046Z,57.63
2023-02-02T20:59:47.913Z,61.15
2023-02-02T21:02:19.604Z,75.55
2023-02-02T21:04:48.083Z,71.25
2023-02-02T21:07:19.414Z,56.40
2023-02-02T21:09:48.695Z,70.10
2023-02-02T21:12:16.934Z,84.18
2023-02-02T21:14:48.064Z,81.35
2023-02-02T21:17:16.250Z,61.20
2023-02-02T21:19:44.416Z,89.60
2023-02-02T21:22:12.729Z,100.07
2023-02-02T21:24:40.798Z,88.18
2023-02-02T21:27:09.461Z,102.15
2023-02-02T21:29:37.482Z,81.10
2023-02-02T21:32:05.331Z,107.50
2023-02-02T21:34:33.337Z,90.60
2023-02-02T21:37:01.186Z,80.80
2023-02-02T21:39:36.164Z,77.47
2023-02-02T21:42:10.007Z,83.35
2023-02-02T21:44:39.552Z,73.18
2023-02-02T21:47:34.683Z,83.90
2023-02-02T21:50:29.743Z,79.07
2023-02-02T21:53:14.350Z,87.80
2023-02-02T21:55:42.211Z,57.70
2023-02-02T21:58:18.928Z,25.75
2023-02-02T22:00:46.918Z,102.93
2023-02-02T22:03:35.303Z,79.50
2023-02-02T22:06:27.712Z,70.32
2023-02-02T22:09:01.859Z,135.82
2023-02-02T22:11:35.152Z,89.05
2023-02-02T22:14:21.088Z,89.53
2023-02-02T22:16:54.262Z,117.43
2023-02-02T22:19:48.560Z,107.32
2023-02-02T22:22:21.784Z,71.65
2023-02-02T22:24:59.133Z,47.58
2023-02-02T22:27:33.139Z,32.47
2023-02-02T22:30:03.438Z,61.05
2023-02-02T22:32:31.325Z,67.55
2023-02-02T22:34:59.121Z,82.20
2023-02-02T22:37:26.923Z,56.25
2023-02-02T22:39:54.645Z,48.63
2023-02-02T22:42:22.422Z,39.75
2023-02-02T22:44:50.978Z,80.47
2023-02-02T22:47:18.789Z,43.28
2023-02-02T22:49:46.507Z,80.75
2023-02-02T22:52:14.261Z,57.38
2023-02-02T22:54:42.091Z,80.43
2023-02-02T22:57:10.166Z,67.68
2023-02-02T22:59:38.012Z,65.05
2023-02-02T23:02:05.730Z,104.05
2023-02-02T23:04:33.488Z,44.35
2023-02-02T23:07:01.417Z,82.65
2023-02-02T23:09:29.235Z,99.90
2023-02-02T23:11:56.967Z,75.45
2023-02-02T23:14:24.793Z,83.05
2023-02-02T23:16:52.583Z,103.07
2023-02-02T23:19:20.533Z,78.82
2023-02-02T23:21:48.382Z,88.43
2023-02-02T23:24:16.159Z,95.70
2023-02-02T23:26:43.882Z,96.03
2023-02-02T23:29:11.673Z,117.60
2023-02-02T23:31:39.474Z,66.80
2023-02-02T23:34:07.344Z,70.32
2023-02-02T23:36:35.189Z,71.25
2023-02-02T23:39:02.941Z,67.45
2023-02-02T23:41:30.764Z,41.13
2023-02-02T23:43:58.561Z,35.88
2023-02-02T23:46:26.732Z,46.60
2023-02-02T23:48:54.992Z,35.90
2023-02-02T23:51:22.736Z,56.58
2023-02-02T23:53:50.576Z,59.17
2023-02-02T23:56:18.422Z,49.45
2023-02-02T23:58:46.215Z,76.63
